Time;durP1;ratioP1;P1;durP2;ratioP2;P2;SDS_P1;SDS_P2;PMS_P1;PMS_P2;Temp;Humidity;BMP_temperature;BMP_pressure;BME280_temperature;BME280_humidity;BME280_pressure;Samples;Min_cycle;Max_cycle;Signal;HPM_P1;HPM_P2
2022/03/16 00:00:33;;;;;;;257.77;136.80;;;;;;;;;;4997858;28;20058;-50
2022/03/16 00:02:59;;;;;;;214.13;117.55;;;;;;;;;;4997408;28;20375;-53
2022/03/16 00:05:26;;;;;;;217.45;120.97;;;;;;;;;;4997809;28;20038;-52
2022/03/16 00:07:54;;;;;;;223.57;120.38;;;;;;;;;;4997470;28;20463;-57
2022/03/16 00:10:20;;;;;;;216.00;117.68;;;;;;;;;;4997400;28;20031;-51
2022/03/16 00:12:46;;;;;;;201.18;111.07;;;;;;;;;;4997651;28;20029;-51
2022/03/16 00:15:12;;;;;;;225.50;123.25;;;;;;;;;;4997646;28;20105;-52
2022/03/16 00:17:39;;;;;;;235.80;134.55;;;;;;;;;;4997301;28;20026;-50
2022/03/16 00:20:05;;;;;;;225.30;128.60;;;;;;;;;;4997661;28;20058;-55
2022/03/16 00:22:31;;;;;;;240.10;131.98;;;;;;;;;;4997150;28;20023;-52
2022/03/16 00:24:57;;;;;;;227.43;128.10;;;;;;;;;;4997644;28;20030;-50
2022/03/16 00:27:24;;;;;;;218.75;124.75;;;;;;;;;;4997089;28;20081;-54
2022/03/16 00:29:50;;;;;;;221.85;127.20;;;;;;;;;;4996550;28;20022;-52
2022/03/16 00:32:16;;;;;;;225.23;126.70;;;;;;;;;;4997302;28;20022;-51
2022/03/16 00:34:42;;;;;;;224.73;126.60;;;;;;;;;;4996912;28;20369;-51
2022/03/16 00:37:08;;;;;;;226.32;127.45;;;;;;;;;;4996840;28;20022;-50
2022/03/16 00:39:35;;;;;;;219.00;124.38;;;;;;;;;;4997036;28;20427;-51
2022/03/16 00:42:03;;;;;;;205.75;116.22;;;;;;;;;;4997094;28;20018;-52
2022/03/16 00:44:34;;;;;;;205.43;113.53;;;;;;;;;;4996588;28;20061;-55
2022/03/16 00:47:00;;;;;;;;;;;;;;;;;;4996566;28;20031;-50
2022/03/16 00:49:26;;;;;;;188.82;108.60;;;;;;;;;;4997174;28;19912;-56
2022/03/16 00:51:53;;;;;;;189.02;106.30;;;;;;;;;;4996520;28;20023;-50
2022/03/16 00:54:19;;;;;;;187.23;105.47;;;;;;;;;;4995638;28;20065;-51
2022/03/16 00:56:45;;;;;;;181.38;100.85;;;;;;;;;;4996910;28;20054;-54
2022/03/16 00:59:11;;;;;;;174.30;100.40;;;;;;;;;;4996515;28;20102;-51
2022/03/16 01:01:38;;;;;;;174.50;100.10;;;;;;;;;;4996435;28;20538;-51
2022/03/16 01:04:04;;;;;;;162.93;95.85;;;;;;;;;;4996293;28;20113;-52
2022/03/16 01:06:30;;;;;;;161.55;94.03;;;;;;;;;;4996405;28;20034;-54
2022/03/16 01:08:56;;;;;;;151.93;88.75;;;;;;;;;;4996891;28;20026;-53
2022/03/16 01:11:23;;;;;;;131.25;77.53;;;;;;;;;;4996256;28;20026;-56
2022/03/16 01:13:49;;;;;;;104.60;63.58;;;;;;;;;;4996285;28;20030;-51
2022/03/16 01:16:15;;;;;;;97.95;56.95;;;;;;;;;;4996782;28;20018;-53
2022/03/16 01:18:42;;;;;;;82.70;48.60;;;;;;;;;;4995896;28;20054;-52
2022/03/16 01:21:09;;;;;;;65.88;38.88;;;;;;;;;;4996388;28;20030;-49
2022/03/16 01:23:35;;;;;;;67.70;40.70;;;;;;;;;;4996202;28;20029;-57
2022/03/16 01:26:01;;;;;;;62.72;35.83;;;;;;;;;;4995856;28;20026;-51
2022/03/16 01:28:28;;;;;;;55.75;32.80;;;;;;;;;;4996225;28;20026;-54
2022/03/16 01:30:54;;;;;;;49.67;29.88;;;;;;;;;;4995934;28;20033;-52
2022/03/16 01:33:20;;;;;;;49.17;28.80;;;;;;;;;;4995400;28;20035;-55
2022/03/16 01:35:46;;;;;;;47.60;29.52;;;;;;;;;;4995852;28;20026;-56
2022/03/16 01:38:12;;;;;;;51.75;30.48;;;;;;;;;;4994826;28;20026;-54
2022/03/16 01:40:38;;;;;;;42.95;26.50;;;;;;;;;;4995583;28;20101;-52
2022/03/16 01:43:05;;;;;;;44.78;27.77;;;;;;;;;;4995674;28;20383;-51
2022/03/16 01:45:31;;;;;;;42.58;26.60;;;;;;;;;;4995986;28;20034;-51
2022/03/16 01:47:57;;;;;;;43.00;27.38;;;;;;;;;;4995567;28;20460;-50
2022/03/16 01:50:23;;;;;;;49.47;29.15;;;;;;;;;;4995595;28;20041;-51
2022/03/16 01:52:49;;;;;;;46.03;27.67;;;;;;;;;;4995857;28;20479;-52
2022/03/16 01:55:15;;;;;;;47.97;28.92;;;;;;;;;;4995465;28;20393;-49
2022/03/16 01:57:42;;;;;;;44.42;27.67;;;;;;;;;;4996150;28;20446;-53
2022/03/16 02:00:08;;;;;;;45.80;26.48;;;;;;;;;;4995615;28;20022;-49
2022/03/16 02:02:35;;;;;;;43.85;26.63;;;;;;;;;;4995135;28;20023;-52
2022/03/16 02:05:01;;;;;;;44.72;26.65;;;;;;;;;;4994890;28;20089;-55
2022/03/16 02:07:27;;;;;;;44.75;27.08;;;;;;;;;;4995378;28;20027;-56
2022/03/16 02:09:54;;;;;;;44.75;26.80;;;;;;;;;;4995426;28;20109;-53
2022/03/16 02:12:20;;;;;;;42.22;26.70;;;;;;;;;;4995418;28;20080;-52
2022/03/16 02:14:46;;;;;;;45.20;26.35;;;;;;;;;;4995071;28;20038;-53
2022/03/16 02:17:12;;;;;;;41.38;25.48;;;;;;;;;;4995111;28;20073;-54
2022/03/16 02:19:38;;;;;;;43.28;25.88;;;;;;;;;;4995284;28;20030;-54
2022/03/16 02:22:05;;;;;;;42.08;26.42;;;;;;;;;;4994864;28;20561;-55
2022/03/16 02:24:31;;;;;;;41.60;25.77;;;;;;;;;;4995119;28;20471;-50
2022/03/16 02:26:58;;;;;;;44.35;26.48;;;;;;;;;;4995173;28;20113;-50
2022/03/16 02:29:24;;;;;;;42.35;26.38;;;;;;;;;;4994808;28;20014;-50
2022/03/16 02:31:51;;;;;;;43.28;25.75;;;;;;;;;;4995006;28;20076;-52
2022/03/16 02:34:17;;;;;;;42.78;26.50;;;;;;;;;;4995014;28;20034;-48
2022/03/16 02:36:43;;;;;;;43.38;27.17;;;;;;;;;;4994756;28;20062;-49
2022/03/16 02:39:09;;;;;;;44.08;26.38;;;;;;;;;;4994680;28;20570;-51
2022/03/16 02:41:36;;;;;;;44.67;27.50;;;;;;;;;;4994868;28;20066;-54
2022/03/16 02:44:02;;;;;;;50.78;30.38;;;;;;;;;;4994516;28;20501;-50
2022/03/16 02:46:28;;;;;;;64.20;34.85;;;;;;;;;;4994813;28;20060;-50
2022/03/16 02:48:54;;;;;;;60.60;34.25;;;;;;;;;;4995305;28;20391;-52
2022/03/16 02:51:21;;;;;;;62.72;34.55;;;;;;;;;;4994493;28;20018;-51
2022/03/16 02:53:47;;;;;;;53.08;30.77;;;;;;;;;;4994469;28;20049;-52
2022/03/16 02:56:14;;;;;;;55.25;32.45;;;;;;;;;;4994493;28;20042;-49
2022/03/16 02:58:40;;;;;;;53.78;30.67;;;;;;;;;;4994280;28;20114;-52
2022/03/16 03:01:06;;;;;;;46.90;29.70;;;;;;;;;;4994483;28;20085;-50
2022/03/16 03:03:32;;;;;;;53.03;31.33;;;;;;;;;;4993976;28;20062;-54
2022/03/16 03:05:59;;;;;;;48.70;29.63;;;;;;;;;;4994564;28;20434;-52
2022/03/16 03:08:25;;;;;;;57.25;31.58;;;;;;;;;;4994611;28;20022;-51
2022/03/16 03:10:51;;;;;;;61.72;32.17;;;;;;;;;;4993804;28;20022;-46
2022/03/16 03:13:17;;;;;;;57.47;35.30;;;;;;;;;;4994455;28;20097;-51
2022/03/16 03:15:43;;;;;;;59.47;35.30;;;;;;;;;;4994390;28;20109;-55
2022/03/16 03:18:10;;;;;;;51.17;31.92;;;;;;;;;;4993905;28;20030;-51
2022/03/16 03:20:36;;;;;;;47.42;29.33;;;;;;;;;;4994152;28;20444;-57
2022/03/16 03:23:02;;;;;;;53.47;32.60;;;;;;;;;;4994000;28;20468;-55
2022/03/16 03:25:28;;;;;;;59.15;33.25;;;;;;;;;;4994003;28;20037;-57
2022/03/16 03:27:55;;;;;;;55.22;33.20;;;;;;;;;;4994265;28;20077;-57
2022/03/16 03:30:21;;;;;;;53.83;31.10;;;;;;;;;;4994077;28;20018;-54
2022/03/16 03:32:47;;;;;;;58.75;33.13;;;;;;;;;;4993691;28;20018;-57
2022/03/16 03:35:13;;;;;;;61.17;33.63;;;;;;;;;;4993969;28;20026;-55
2022/03/16 03:37:39;;;;;;;58.95;34.65;;;;;;;;;;4994330;28;20113;-53
2022/03/16 03:40:06;;;;;;;56.95;34.92;;;;;;;;;;4994141;28;20065;-55
2022/03/16 03:42:33;;;;;;;60.35;35.50;;;;;;;;;;4994037;28;20022;-56
2022/03/16 03:44:59;;;;;;;61.40;34.40;;;;;;;;;;4994074;28;20061;-52
2022/03/16 03:47:25;;;;;;;55.03;33.15;;;;;;;;;;4993732;28;20177;-54
2022/03/16 03:49:51;;;;;;;64.97;36.08;;;;;;;;;;4994057;28;20025;-56
2022/03/16 03:52:17;;;;;;;63.03;35.70;;;;;;;;;;4994238;28;20040;-52
2022/03/16 03:54:44;;;;;;;56.92;33.38;;;;;;;;;;4993661;28;20353;-53
2022/03/16 03:57:10;;;;;;;43.15;27.08;;;;;;;;;;4994116;28;20458;-50
2022/03/16 03:59:36;;;;;;;46.35;27.90;;;;;;;;;;4993463;28;20101;-52
2022/03/16 04:02:02;;;;;;;45.95;26.63;;;;;;;;;;4994093;28;20034;-50
2022/03/16 04:04:28;;;;;;;45.30;25.95;;;;;;;;;;4993946;28;20113;-49
2022/03/16 04:06:54;;;;;;;45.42;26.55;;;;;;;;;;4993763;28;20030;-49
2022/03/16 04:09:21;;;;;;;43.33;26.05;;;;;;;;;;4993743;28;20054;-54
2022/03/16 04:11:47;;;;;;;45.72;27.23;;;;;;;;;;4993903;28;20023;-52
2022/03/16 04:14:13;;;;;;;43.65;25.23;;;;;;;;;;4993648;28;20101;-51
2022/03/16 04:16:39;;;;;;;43.20;25.75;;;;;;;;;;4993474;28;20026;-55
2022/03/16 04:19:05;;;;;;;46.92;25.00;;;;;;;;;;4993818;28;20105;-55
2022/03/16 04:21:33;;;;;;;42.45;24.55;;;;;;;;;;4993504;28;20030;-52
2022/03/16 04:23:59;;;;;;;46.65;25.08;;;;;;;;;;4997555;28;20026;-54
2022/03/16 04:26:26;;;;;;;39.63;24.60;;;;;;;;;;4997429;28;20084;-52
2022/03/16 04:28:52;;;;;;;39.38;23.05;;;;;;;;;;4996895;28;20026;-55
2022/03/16 04:31:18;;;;;;;38.85;22.50;;;;;;;;;;4997065;28;20522;-52
2022/03/16 04:33:44;;;;;;;43.22;23.45;;;;;;;;;;4997070;28;20089;-51
2022/03/16 04:36:11;;;;;;;38.25;21.50;;;;;;;;;;4996748;28;20387;-51
2022/03/16 04:38:37;;;;;;;37.38;22.58;;;;;;;;;;4997223;28;20346;-50
2022/03/16 04:41:04;;;;;;;37.03;21.90;;;;;;;;;;4996998;28;20058;-52
2022/03/16 04:43:30;;;;;;;41.22;22.75;;;;;;;;;;4997076;28;20022;-53
2022/03/16 04:45:56;;;;;;;42.70;23.52;;;;;;;;;;4995756;28;20046;-54
2022/03/16 04:48:23;;;;;;;44.25;25.42;;;;;;;;;;4996769;28;20030;-52
2022/03/16 04:50:49;;;;;;;64.43;35.85;;;;;;;;;;4997048;28;20081;-55
2022/03/16 04:53:15;;;;;;;61.88;35.22;;;;;;;;;;4996696;28;20037;-53
2022/03/16 04:55:42;;;;;;;62.50;34.30;;;;;;;;;;4996988;28;20558;-52
2022/03/16 04:58:09;;;;;;;75.90;38.00;;;;;;;;;;4996848;28;20533;-52
2022/03/16 05:00:35;;;;;;;70.72;34.28;;;;;;;;;;4996734;28;20022;-52
2022/03/16 05:03:02;;;;;;;61.53;33.95;;;;;;;;;;4994860;28;20109;-52
2022/03/16 05:05:28;;;;;;;70.00;31.85;;;;;;;;;;4996709;28;20030;-53
2022/03/16 05:07:55;;;;;;;55.35;31.75;;;;;;;;;;4996220;28;20030;-51
2022/03/16 05:10:21;;;;;;;71.30;36.25;;;;;;;;;;4996364;28;20030;-52
2022/03/16 05:12:47;;;;;;;63.53;34.30;;;;;;;;;;4996688;28;20030;-51
2022/03/16 05:15:14;;;;;;;54.53;30.55;;;;;;;;;;4996951;28;20022;-55
2022/03/16 05:17:41;;;;;;;57.08;31.20;;;;;;;;;;4996319;28;20149;-54
2022/03/16 05:20:07;;;;;;;69.30;35.30;;;;;;;;;;4996221;28;20463;-57
2022/03/16 05:22:43;;;;;;;73.32;38.55;;;;;;;;;;4996602;28;20053;-53
2022/03/16 05:25:10;;;;;;;70.40;32.78;;;;;;;;;;4995849;28;20054;-55
2022/03/16 05:27:36;;;;;;;66.13;32.95;;;;;;;;;;4996474;28;20026;-52
2022/03/16 05:30:03;;;;;;;55.20;30.88;;;;;;;;;;4996235;28;20035;-53
2022/03/16 05:32:31;;;;;;;52.97;29.33;;;;;;;;;;4995034;28;20030;-55
2022/03/16 05:34:57;;;;;;;50.50;30.30;;;;;;;;;;4996398;28;20034;-55
2022/03/16 05:37:23;;;;;;;55.53;30.40;;;;;;;;;;4995450;28;20030;-56
2022/03/16 05:39:49;;;;;;;64.60;33.05;;;;;;;;;;4995715;28;20560;-56
2022/03/16 05:42:15;;;;;;;87.57;41.17;;;;;;;;;;4995736;28;20037;-54
2022/03/16 05:44:41;;;;;;;76.85;37.08;;;;;;;;;;4995069;28;20478;-57
2022/03/16 05:47:08;;;;;;;60.30;33.03;;;;;;;;;;4994871;28;20475;-57
2022/03/16 05:49:36;;;;;;;64.53;31.08;;;;;;;;;;4995598;28;20435;-54
2022/03/16 05:52:02;;;;;;;59.90;31.13;;;;;;;;;;4995306;28;20464;-56
2022/03/16 05:54:29;;;;;;;54.65;29.40;;;;;;;;;;4996128;28;20030;-51
2022/03/16 05:56:55;;;;;;;49.10;26.30;;;;;;;;;;4995070;28;20058;-57
2022/03/16 05:59:21;;;;;;;56.90;27.13;;;;;;;;;;4994717;28;20052;-52
2022/03/16 06:01:47;;;;;;;54.35;27.17;;;;;;;;;;4995370;28;20034;-51
2022/03/16 06:04:13;;;;;;;46.45;24.33;;;;;;;;;;4994730;28;20034;-51
2022/03/16 06:06:39;;;;;;;47.22;25.13;;;;;;;;;;4994935;28;20073;-52
2022/03/16 06:09:05;;;;;;;41.45;24.58;;;;;;;;;;4995308;28;20041;-51
2022/03/16 06:11:32;;;;;;;44.20;24.50;;;;;;;;;;4995463;28;20088;-53
2022/03/16 06:13:58;;;;;;;45.30;24.42;;;;;;;;;;4994396;28;20066;-54
2022/03/16 06:16:24;;;;;;;47.20;24.83;;;;;;;;;;4993526;28;20026;-52
2022/03/16 06:18:50;;;;;;;45.92;25.83;;;;;;;;;;4994552;28;20022;-54
2022/03/16 06:21:16;;;;;;;37.83;23.40;;;;;;;;;;4994838;28;20376;-56
2022/03/16 06:23:43;;;;;;;39.17;24.05;;;;;;;;;;4995394;28;20062;-55
2022/03/16 06:26:09;;;;;;;40.50;23.45;;;;;;;;;;4994665;28;20026;-54
2022/03/16 06:28:35;;;;;;;39.45;24.65;;;;;;;;;;4994729;28;20367;-54
2022/03/16 06:31:01;;;;;;;47.30;26.50;;;;;;;;;;4994966;28;20482;-56
2022/03/16 06:33:27;;;;;;;43.75;25.02;;;;;;;;;;4994853;28;20041;-60
2022/03/16 06:35:53;;;;;;;43.40;24.70;;;;;;;;;;4995144;28;20495;-56
2022/03/16 06:38:20;;;;;;;47.03;25.70;;;;;;;;;;4994268;28;20113;-51
2022/03/16 06:40:46;;;;;;;38.58;24.52;;;;;;;;;;4992907;28;20022;-54
2022/03/16 06:43:12;;;;;;;43.67;25.25;;;;;;;;;;4994042;28;20041;-53
2022/03/16 06:45:38;;;;;;;49.47;27.98;;;;;;;;;;4992633;28;20033;-55
2022/03/16 06:48:04;;;;;;;55.22;31.45;;;;;;;;;;4992242;28;20049;-54
2022/03/16 06:50:31;;;;;;;51.30;31.25;;;;;;;;;;4992934;28;20076;-57
2022/03/16 06:52:58;;;;;;;58.13;34.47;;;;;;;;;;4993279;28;20021;-56
2022/03/16 06:55:26;;;;;;;54.60;33.28;;;;;;;;;;4993843;28;20510;-51
2022/03/16 06:57:53;;;;;;;61.13;35.25;;;;;;;;;;4994797;28;20054;-51
2022/03/16 07:00:19;;;;;;;64.43;37.40;;;;;;;;;;4994411;28;20018;-49
2022/03/16 07:02:53;;;;;;;64.82;37.63;;;;;;;;;;4994093;28;20033;-55
2022/03/16 07:05:20;;;;;;;67.32;42.42;;;;;;;;;;4993241;28;20018;-49
2022/03/16 07:07:46;;;;;;;48.55;32.63;;;;;;;;;;4993027;28;20364;-49
2022/03/16 07:10:12;;;;;;;57.63;35.05;;;;;;;;;;4991776;28;20423;-49
2022/03/16 07:12:39;;;;;;;61.08;36.85;;;;;;;;;;4993219;28;20037;-52
2022/03/16 07:15:06;;;;;;;70.97;42.80;;;;;;;;;;4994084;28;20023;-50
2022/03/16 07:17:32;;;;;;;66.50;37.75;;;;;;;;;;4992731;28;20095;-51
2022/03/16 07:19:58;;;;;;;67.07;38.83;;;;;;;;;;4993717;28;20029;-50
2022/03/16 07:22:24;;;;;;;69.65;40.22;;;;;;;;;;4993991;28;20018;-54
2022/03/16 07:24:51;;;;;;;67.75;39.55;;;;;;;;;;4993656;28;20030;-51
2022/03/16 07:27:17;;;;;;;69.38;39.05;;;;;;;;;;4992653;28;20023;-52
2022/03/16 07:29:43;;;;;;;65.72;37.60;;;;;;;;;;4993614;28;20056;-52
2022/03/16 07:32:09;;;;;;;77.25;40.22;;;;;;;;;;4991327;28;20395;-52
2022/03/16 07:34:35;;;;;;;66.93;37.42;;;;;;;;;;4993951;28;20022;-51
2022/03/16 07:37:01;;;;;;;76.38;39.13;;;;;;;;;;4993308;28;20479;-53
2022/03/16 07:39:27;;;;;;;73.63;38.65;;;;;;;;;;4993538;28;20375;-54
2022/03/16 07:41:54;;;;;;;69.70;36.78;;;;;;;;;;4993768;28;20454;-51
2022/03/16 07:44:20;;;;;;;60.38;35.13;;;;;;;;;;4993504;28;20018;-49
2022/03/16 07:46:46;;;;;;;66.35;35.47;;;;;;;;;;4993696;28;20031;-49
2022/03/16 07:49:12;;;;;;;52.90;31.85;;;;;;;;;;4993434;28;20023;-48
2022/03/16 07:51:38;;;;;;;55.58;30.73;;;;;;;;;;4992675;28;20038;-54
2022/03/16 07:54:04;;;;;;;57.88;32.25;;;;;;;;;;4993615;28;20026;-57
2022/03/16 07:56:31;;;;;;;54.78;29.42;;;;;;;;;;4995626;28;20053;-56
2022/03/16 07:59:01;;;;;;;54.13;28.50;;;;;;;;;;4997393;28;20058;-51
2022/03/16 08:01:27;;;;;;;44.92;25.08;;;;;;;;;;4997952;28;20386;-55
2022/03/16 08:03:53;;;;;;;39.78;26.00;;;;;;;;;;4997917;28;20026;-50
2022/03/16 08:06:20;;;;;;;41.05;25.45;;;;;;;;;;4997418;28;20049;-55
2022/03/16 08:08:46;;;;;;;48.45;28.73;;;;;;;;;;4997353;28;20479;-53
2022/03/16 08:11:12;;;;;;;44.40;28.33;;;;;;;;;;4997579;28;20088;-48
2022/03/16 08:13:38;;;;;;;66.13;37.53;;;;;;;;;;4997477;28;20386;-55
2022/03/16 08:16:05;;;;;;;69.03;42.08;;;;;;;;;;4997938;28;20409;-51
2022/03/16 08:18:31;;;;;;;63.08;36.90;;;;;;;;;;4997776;28;20479;-54
2022/03/16 08:20:58;;;;;;;58.80;34.65;;;;;;;;;;4997406;28;20019;-51
2022/03/16 08:23:24;;;;;;;54.47;33.92;;;;;;;;;;4997533;28;20026;-55
2022/03/16 08:25:50;;;;;;;46.33;28.95;;;;;;;;;;4996795;28;20066;-55
2022/03/16 08:28:16;;;;;;;50.33;30.05;;;;;;;;;;4997626;28;20063;-49
2022/03/16 08:30:42;;;;;;;57.13;34.60;;;;;;;;;;4997243;28;20019;-51
2022/03/16 08:33:09;;;;;;;55.75;35.15;;;;;;;;;;4997096;28;20030;-52
2022/03/16 08:35:35;;;;;;;56.08;34.72;;;;;;;;;;4997140;28;20022;-47
2022/03/16 08:38:01;;;;;;;53.42;32.58;;;;;;;;;;4997391;28;20038;-57
2022/03/16 08:40:27;;;;;;;51.55;32.67;;;;;;;;;;4996753;28;20467;-55
2022/03/16 08:42:53;;;;;;;60.75;33.30;;;;;;;;;;4997200;28;20497;-53
2022/03/16 08:45:20;;;;;;;58.83;35.60;;;;;;;;;;4996961;28;20037;-52
2022/03/16 08:47:46;;;;;;;46.92;30.30;;;;;;;;;;4996971;28;20034;-52
2022/03/16 08:50:12;;;;;;;50.53;31.42;;;;;;;;;;4997377;28;20102;-51
2022/03/16 08:52:40;;;;;;;44.95;29.67;;;;;;;;;;4996758;28;20074;-55
2022/03/16 08:55:06;;;;;;;89.95;36.15;;;;;;;;;;4996451;28;20387;-51
2022/03/16 08:57:33;;;;;;;71.05;34.92;;;;;;;;;;4996976;28;20129;-53
2022/03/16 08:59:59;;;;;;;46.15;29.60;;;;;;;;;;4996555;28;20114;-52
2022/03/16 09:02:26;;;;;;;52.53;29.20;;;;;;;;;;4996395;28;20022;-50
2022/03/16 09:04:52;;;;;;;53.00;29.70;;;;;;;;;;4995765;28;20038;-48
2022/03/16 09:07:18;;;;;;;51.65;30.08;;;;;;;;;;4995579;28;20054;-53
2022/03/16 09:09:44;;;;;;;53.70;30.52;;;;;;;;;;4997004;28;20485;-49
2022/03/16 09:12:11;;;;;;;54.85;32.13;;;;;;;;;;4997249;28;20027;-54
2022/03/16 09:14:38;;;;;;;55.38;31.58;;;;;;;;;;4996295;28;20035;-53
2022/03/16 09:17:05;;;;;;;62.53;34.05;;;;;;;;;;4996839;28;20073;-49
2022/03/16 09:19:33;;;;;;;58.97;34.65;;;;;;;;;;4996277;28;20537;-56
2022/03/16 09:22:00;;;;;;;64.57;34.97;;;;;;;;;;4994785;28;20030;-55
2022/03/16 09:24:26;;;;;;;58.72;34.13;;;;;;;;;;4995140;28;20042;-55
2022/03/16 09:26:54;;;;;;;63.03;32.47;;;;;;;;;;4995927;28;20105;-56
2022/03/16 09:29:20;;;;;;;61.55;30.02;;;;;;;;;;4995752;28;20360;-53
2022/03/16 09:31:47;;;;;;;59.35;30.55;;;;;;;;;;4995865;28;20026;-49
2022/03/16 09:34:14;;;;;;;67.03;30.85;;;;;;;;;;4995774;28;20033;-56
2022/03/16 09:36:42;;;;;;;49.35;30.58;;;;;;;;;;4995535;28;20023;-51
2022/03/16 09:39:09;;;;;;;56.70;28.52;;;;;;;;;;4995429;28;20535;-56
2022/03/16 09:41:36;;;;;;;55.42;30.45;;;;;;;;;;4993905;28;20659;-50
2022/03/16 09:44:03;;;;;;;49.00;30.17;;;;;;;;;;4992693;28;20446;-54
2022/03/16 09:46:33;;;;;;;52.42;29.58;;;;;;;;;;4993318;28;20031;-54
2022/03/16 09:49:00;;;;;;;42.75;26.40;;;;;;;;;;4993411;28;20543;-53
2022/03/16 09:51:26;;;;;;;58.90;33.10;;;;;;;;;;4994052;28;20117;-50
2022/03/16 09:53:55;;;;;;;68.82;36.03;;;;;;;;;;4995023;28;20031;-53
2022/03/16 09:56:21;;;;;;;55.97;34.13;;;;;;;;;;4995092;28;20086;-49
2022/03/16 09:58:47;;;;;;;56.03;35.03;;;;;;;;;;4995656;28;20085;-54
2022/03/16 10:01:14;;;;;;;65.38;36.67;;;;;;;;;;4995482;28;20388;-54
2022/03/16 10:03:40;;;;;;;60.50;35.85;;;;;;;;;;4995057;28;20042;-55
2022/03/16 10:06:10;;;;;;;61.83;37.22;;;;;;;;;;4995391;28;20058;-53
2022/03/16 10:08:37;;;;;;;69.53;39.75;;;;;;;;;;4995615;28;20029;-59
2022/03/16 10:13:48;;;;;;;49.92;26.67;;;;;;;;;;4995417;28;20034;-53
2022/03/16 10:16:14;;;;;;;43.90;24.55;;;;;;;;;;4995784;28;20037;-50
2022/03/16 10:18:41;;;;;;;26.67;14.85;;;;;;;;;;4994952;28;20077;-55
2022/03/16 10:21:07;;;;;;;33.00;13.13;;;;;;;;;;4994701;28;20022;-54
2022/03/16 10:23:35;;;;;;;26.77;14.10;;;;;;;;;;4995421;28;20030;-57
2022/03/16 10:26:03;;;;;;;23.83;13.02;;;;;;;;;;4994968;28;20026;-54
2022/03/16 10:28:30;;;;;;;23.90;12.35;;;;;;;;;;4995215;28;20019;-54
2022/03/16 10:31:07;;;;;;;27.63;12.35;;;;;;;;;;4995323;28;20031;-53
2022/03/16 10:33:37;;;;;;;22.83;11.98;;;;;;;;;;4994613;28;20072;-53
2022/03/16 10:36:04;;;;;;;27.35;12.05;;;;;;;;;;4995149;28;20057;-51
2022/03/16 10:38:32;;;;;;;25.38;13.52;;;;;;;;;;4994557;28;20014;-51
2022/03/16 10:41:11;;;;;;;28.15;15.90;;;;;;;;;;4994724;28;20057;-53
2022/03/16 10:46:34;;;;;;;24.08;14.10;;;;;;;;;;4994473;28;20030;-55
2022/03/16 10:49:03;;;;;;;25.67;13.80;;;;;;;;;;4995295;28;20034;-53
2022/03/16 10:51:29;;;;;;;27.48;13.75;;;;;;;;;;4995157;28;20093;-54
2022/03/16 10:53:58;;;;;;;29.45;14.48;;;;;;;;;;4994457;28;20038;-54
2022/03/16 10:56:25;;;;;;;33.22;15.52;;;;;;;;;;4994301;28;20396;-52
2022/03/16 10:58:54;;;;;;;31.23;14.77;;;;;;;;;;4995092;28;20030;-51
2022/03/16 11:01:21;;;;;;;26.50;12.65;;;;;;;;;;4994528;28;20057;-50
2022/03/16 11:03:51;;;;;;;21.17;10.90;;;;;;;;;;4994583;28;20431;-54
2022/03/16 11:06:20;;;;;;;17.38;9.05;;;;;;;;;;4994795;28;20466;-51
2022/03/16 11:08:47;;;;;;;18.33;10.02;;;;;;;;;;4994581;28;20109;-54
2022/03/16 11:13:59;;;;;;;22.15;11.55;;;;;;;;;;4994256;28;20057;-54
2022/03/16 11:16:25;;;;;;;22.80;10.38;;;;;;;;;;4994267;28;20368;-54
2022/03/16 11:18:52;;;;;;;20.15;11.75;;;;;;;;;;4994657;28;20435;-55
2022/03/16 11:21:30;;;;;;;32.08;12.57;;;;;;;;;;4994213;28;20025;-52
2022/03/16 11:26:51;;;;;;;29.60;11.43;;;;;;;;;;4994535;28;20061;-51
2022/03/16 11:29:26;;;;;;;23.42;12.18;;;;;;;;;;4993845;28;20468;-52
2022/03/16 11:32:07;;;;;;;28.30;13.35;;;;;;;;;;4994274;28;20026;-55
2022/03/16 11:34:35;;;;;;;27.13;12.60;;;;;;;;;;4993791;28;20023;-50
2022/03/16 11:37:03;;;;;;;25.75;11.73;;;;;;;;;;4993988;28;20030;-51
2022/03/16 11:39:39;;;;;;;20.58;10.07;;;;;;;;;;4993590;28;20034;-54
2022/03/16 11:42:07;;;;;;;24.38;10.32;;;;;;;;;;4993464;28;20096;-54
2022/03/16 11:44:34;;;;;;;27.45;11.00;;;;;;;;;;4991392;28;20567;-55
2022/03/16 11:47:09;;;;;;;26.63;12.65;;;;;;;;;;4993498;28;20427;-51
2022/03/16 11:49:39;;;;;;;21.85;11.88;;;;;;;;;;4993842;28;20084;-53
2022/03/16 11:52:08;;;;;;;29.88;12.15;;;;;;;;;;4994120;28;20023;-52
2022/03/16 11:54:51;;;;;;;26.48;12.05;;;;;;;;;;4994387;28;20031;-57
2022/03/16 11:57:37;;;;;;;27.92;12.02;;;;;;;;;;4992704;28;20050;-54
2022/03/16 12:00:13;;;;;;;25.58;11.13;;;;;;;;;;4992448;28;20022;-53
2022/03/16 12:02:40;;;;;;;19.30;10.68;;;;;;;;;;4992716;28;20030;-54
2022/03/16 12:05:08;;;;;;;21.45;10.25;;;;;;;;;;4993404;28;20037;-55
2022/03/16 12:07:35;;;;;;;22.23;10.77;;;;;;;;;;4993921;28;20026;-51
2022/03/16 12:10:11;;;;;;;20.05;10.07;;;;;;;;;;4993343;28;20464;-53
2022/03/16 12:12:57;;;;;;;17.63;9.75;;;;;;;;;;4993989;28;20475;-54
2022/03/16 12:15:23;;;;;;;37.90;11.30;;;;;;;;;;4994412;28;20470;-55
2022/03/16 12:17:53;;;;;;;34.33;11.80;;;;;;;;;;4993537;28;20113;-50
2022/03/16 12:20:23;;;;;;;41.53;14.27;;;;;;;;;;4993613;28;20097;-54
2022/03/16 12:22:50;;;;;;;29.52;9.63;;;;;;;;;;4993573;28;20080;-53
2022/03/16 12:25:29;;;;;;;23.95;9.82;;;;;;;;;;4992912;28;20514;-53
2022/03/16 12:30:50;;;;;;;24.00;8.95;;;;;;;;;;4993588;28;20085;-53
2022/03/16 12:33:40;;;;;;;26.80;8.77;;;;;;;;;;4993804;28;20030;-52
2022/03/16 12:36:12;;;;;;;21.95;9.95;;;;;;;;;;4986951;28;20034;-53
2022/03/16 12:38:40;;;;;;;21.33;8.95;;;;;;;;;;4993538;28;20085;-54
2022/03/16 12:43:59;;;;;;;33.15;9.75;;;;;;;;;;4995819;28;20108;-54
2022/03/16 12:46:28;;;;;;;21.20;9.05;;;;;;;;;;4996703;28;20022;-54
2022/03/16 12:48:55;;;;;;;26.08;7.35;;;;;;;;;;4997439;28;20027;-53
2022/03/16 12:51:39;;;;;;;31.77;15.60;;;;;;;;;;4997313;28;20033;-57
2022/03/16 12:54:08;;;;;;;37.97;16.85;;;;;;;;;;4996836;28;20023;-56
2022/03/16 12:56:40;;;;;;;57.90;31.38;;;;;;;;;;4996731;28;20061;-51
2022/03/16 12:59:07;;;;;;;40.15;20.65;;;;;;;;;;4996841;28;20109;-53
2022/03/16 13:01:33;;;;;;;29.30;11.30;;;;;;;;;;4996913;28;20030;-54
2022/03/16 13:04:01;;;;;;;19.13;7.85;;;;;;;;;;4996832;28;20037;-51
2022/03/16 13:06:32;;;;;;;29.17;12.68;;;;;;;;;;4996520;28;20019;-50
2022/03/16 13:08:58;;;;;;;23.70;12.98;;;;;;;;;;4996485;28;20040;-56
2022/03/16 13:11:26;;;;;;;21.58;8.40;;;;;;;;;;4997288;28;20082;-51
2022/03/16 13:14:06;;;;;;;31.13;10.82;;;;;;;;;;4996389;28;20489;-51
2022/03/16 13:16:33;;;;;;;32.33;16.10;;;;;;;;;;4997093;28;20034;-51
2022/03/16 13:19:00;;;;;;;33.28;14.85;;;;;;;;;;4996118;28;20510;-52
2022/03/16 13:21:26;;;;;;;27.00;14.57;;;;;;;;;;4994491;28;20036;-53
2022/03/16 13:24:02;;;;;;;19.48;11.70;;;;;;;;;;4994417;28;20053;-50
2022/03/16 13:26:29;;;;;;;38.22;17.25;;;;;;;;;;4994154;28;20022;-55
2022/03/16 13:28:58;;;;;;;17.05;7.45;;;;;;;;;;4994127;28;20022;-51
2022/03/16 13:31:26;;;;;;;22.80;12.27;;;;;;;;;;4994421;28;20356;-52
2022/03/16 13:33:52;;;;;;;36.70;19.52;;;;;;;;;;4995892;28;20517;-50
2022/03/16 13:36:30;;;;;;;19.52;10.73;;;;;;;;;;4994471;28;20026;-52
2022/03/16 13:38:57;;;;;;;18.60;10.43;;;;;;;;;;4994948;28;20089;-53
2022/03/16 13:41:23;;;;;;;25.35;11.40;;;;;;;;;;4995353;28;20419;-57
2022/03/16 13:44:01;;;;;;;29.15;14.32;;;;;;;;;;4995988;28;20031;-53
2022/03/16 13:46:44;;;;;;;32.85;12.27;;;;;;;;;;4996105;28;20118;-57
2022/03/16 13:49:15;;;;;;;28.35;14.15;;;;;;;;;;4995314;28;20022;-54
2022/03/16 13:52:03;;;;;;;29.23;13.93;;;;;;;;;;4995443;28;20033;-53
2022/03/16 13:54:33;;;;;;;;;;;;;;;;;;4994758;28;20034;-51
2022/03/16 13:57:08;;;;;;;22.10;10.85;;;;;;;;;;4996104;28;19925;-49
2022/03/16 13:59:35;;;;;;;17.30;7.65;;;;;;;;;;4995642;28;20033;-49
2022/03/16 14:02:12;;;;;;;29.52;8.90;;;;;;;;;;4994093;28;20371;-50
2022/03/16 14:04:40;;;;;;;13.50;7.22;;;;;;;;;;4995657;28;20117;-55
2022/03/16 14:07:20;;;;;;;14.80;7.18;;;;;;;;;;4995606;28;20031;-51
2022/03/16 14:09:46;;;;;;;16.85;7.75;;;;;;;;;;4995184;28;20387;-52
2022/03/16 14:12:16;;;;;;;22.33;8.82;;;;;;;;;;4995415;28;20045;-53
2022/03/16 14:14:45;;;;;;;16.77;7.20;;;;;;;;;;4995511;28;20088;-54
2022/03/16 14:17:11;;;;;;;23.58;8.52;;;;;;;;;;4994859;28;20113;-55
2022/03/16 14:19:38;;;;;;;21.77;8.45;;;;;;;;;;4996232;28;20030;-52
2022/03/16 14:22:05;;;;;;;15.98;7.85;;;;;;;;;;4995201;28;20022;-53
2022/03/16 14:24:33;;;;;;;18.95;8.95;;;;;;;;;;4994647;28;20434;-56
2022/03/16 14:27:15;;;;;;;14.55;8.13;;;;;;;;;;4995356;28;20022;-56
2022/03/16 14:29:48;;;;;;;17.67;8.20;;;;;;;;;;4994990;28;20085;-50
2022/03/16 14:32:15;;;;;;;19.23;11.25;;;;;;;;;;4995227;28;20482;-56
2022/03/16 14:34:42;;;;;;;27.40;11.73;;;;;;;;;;4995115;28;20084;-51